Time;durP1;ratioP1;P1;durP2;ratioP2;P2;SDS_P1;SDS_P2;PMS_P1;PMS_P2;Temp;Humidity;BMP_temperature;BMP_pressure;BME280_temperature;BME280_humidity;BME280_pressure;Samples;Min_cycle;Max_cycle;Signal;HPM_P1;HPM_P2
2023/02/05 00:00:54;;;;;;;0.30;0.30;;;19.30;29.30;;;;;;5014014;28;20133;-65
2023/02/05 00:03:21;;;;;;;0.70;0.30;;;19.30;29.30;;;;;;5014107;28;20046;-66
2023/02/05 00:05:49;;;;;;;0.57;0.30;;;19.20;29.30;;;;;;5014010;28;20081;-65
2023/02/05 00:08:16;;;;;;;0.20;0.20;;;19.30;29.30;;;;;;5013854;28;20050;-65
2023/02/05 00:10:50;;;;;;;0.30;0.20;;;19.30;29.30;;;;;;5013631;28;20049;-66
2023/02/05 00:13:17;;;;;;;1.08;0.38;;;19.30;29.30;;;;;;5013413;28;20141;-66
2023/02/05 00:15:44;;;;;;;0.30;0.30;;;19.30;29.30;;;;;;5013746;28;20479;-66
2023/02/05 00:18:11;;;;;;;0.30;0.20;;;19.30;29.30;;;;;;5013631;28;20062;-66
2023/02/05 00:20:39;;;;;;;0.10;0.10;;;19.30;29.30;;;;;;5012817;28;20049;-67
2023/02/05 00:23:06;;;;;;;0.35;0.25;;;19.30;29.40;;;;;;5013562;28;20046;-66
2023/02/05 00:25:33;;;;;;;0.52;0.28;;;19.20;29.70;;;;;;5013554;28;20485;-65
2023/02/05 00:28:00;;;;;;;0.40;0.30;;;19.30;29.40;;;;;;5013512;28;20047;-66
2023/02/05 00:30:28;;;;;;;0.10;0.10;;;19.30;29.30;;;;;;5013342;28;20128;-65
2023/02/05 00:32:55;;;;;;;0.22;0.22;;;19.30;29.40;;;;;;5013567;28;20061;-66
2023/02/05 00:35:22;;;;;;;0.20;0.20;;;19.30;29.30;;;;;;5013387;28;20128;-65
2023/02/05 00:37:49;;;;;;;0.40;0.40;;;19.20;29.30;;;;;;5013579;28;20052;-66
2023/02/05 00:40:17;;;;;;;0.35;0.30;;;19.20;29.40;;;;;;5013316;28;20454;-65
2023/02/05 00:42:44;;;;;;;1.05;0.30;;;19.20;29.40;;;;;;5013223;28;20054;-66
2023/02/05 00:45:11;;;;;;;0.90;0.38;;;19.20;29.40;;;;;;5019287;28;20069;-66
2023/02/05 00:47:38;;;;;;;0.47;0.25;;;19.20;29.40;;;;;;5032882;28;20481;-65
2023/02/05 00:50:05;;;;;;;0.30;0.20;;;19.30;29.40;;;;;;5032998;28;20051;-66
2023/02/05 00:52:32;;;;;;;0.50;0.20;;;19.30;29.40;;;;;;5032890;28;20052;-65
2023/02/05 00:55:00;;;;;;;0.28;0.28;;;19.30;29.40;;;;;;5032643;28;20041;-65
2023/02/05 00:57:27;;;;;;;0.40;0.20;;;19.30;29.40;;;;;;5032789;28;20045;-65
2023/02/05 00:59:54;;;;;;;0.20;0.20;;;19.20;29.40;;;;;;5032820;28;20055;-65
2023/02/05 01:02:24;;;;;;;0.20;0.13;;;19.30;29.40;;;;;;5032394;28;20055;-66
2023/02/05 01:04:51;;;;;;;0.30;0.30;;;19.30;29.50;;;;;;5032518;28;20559;-66
2023/02/05 01:07:19;;;;;;;0.32;0.30;;;19.30;29.50;;;;;;5032689;28;20055;-65
2023/02/05 01:09:46;;;;;;;0.50;0.17;;;19.30;29.90;;;;;;5032968;28;20053;-66
2023/02/05 01:12:14;;;;;;;0.20;0.20;;;19.30;29.50;;;;;;5032629;28;20057;-66
2023/02/05 01:14:41;;;;;;;0.38;0.25;;;19.30;29.50;;;;;;5032863;28;20132;-66
2023/02/05 01:17:08;;;;;;;0.68;0.30;;;19.30;29.50;;;;;;5033015;28;20049;-65
2023/02/05 01:19:36;;;;;;;0.20;0.20;;;19.30;29.50;;;;;;5032069;28;20046;-66
2023/02/05 01:22:04;;;;;;;0.20;0.10;;;19.20;29.50;;;;;;5032564;28;20454;-66
2023/02/05 01:24:31;;;;;;;0.22;0.20;;;19.20;29.50;;;;;;5032897;28;20046;-66
2023/02/05 01:26:59;;;;;;;0.60;0.25;;;19.20;29.50;;;;;;5032816;28;20049;-66
2023/02/05 01:29:26;;;;;;;0.75;0.20;;;19.20;29.50;;;;;;5032621;28;20095;-65
2023/02/05 01:31:55;;;;;;;0.75;0.75;;;19.20;29.50;;;;;;5032378;28;20136;-66
2023/02/05 01:34:22;;;;;;;0.40;0.20;;;19.20;29.50;;;;;;5032627;28;20456;-66
2023/02/05 01:36:49;;;;;;;0.43;0.30;;;19.20;29.50;;;;;;5032075;28;20056;-65
2023/02/05 01:39:16;;;;;;;0.45;0.30;;;19.20;29.50;;;;;;5032898;28;20077;-66
2023/02/05 01:41:44;;;;;;;0.55;0.20;;;19.20;29.50;;;;;;5032292;28;20053;-65
2023/02/05 01:44:21;;;;;;;0.28;0.20;;;19.20;29.50;;;;;;5032275;28;20050;-66
2023/02/05 01:46:48;;;;;;;1.45;0.35;;;19.20;29.50;;;;;;5032445;28;20057;-65
2023/02/05 01:49:23;;;;;;;0.60;0.30;;;19.20;29.50;;;;;;5032325;28;20132;-65
2023/02/05 01:51:52;;;;;;;0.28;0.25;;;19.20;29.50;;;;;;5031997;28;20045;-65
2023/02/05 01:54:21;;;;;;;0.70;0.20;;;19.20;29.50;;;;;;5032467;28;20046;-66
2023/02/05 01:56:54;;;;;;;0.63;0.30;;;19.20;29.60;;;;;;5014818;28;20053;-65
2023/02/05 01:59:26;;;;;;;0.52;0.40;;;19.20;29.50;;;;;;5032770;28;20125;-66
2023/02/05 02:01:54;;;;;;;0.30;0.25;;;19.20;29.60;;;;;;5035556;28;20464;-66
2023/02/05 02:04:42;;;;;;;0.70;0.45;;;19.20;29.50;;;;;;5035649;28;20049;-66
2023/02/05 02:07:13;;;;;;;0.40;0.40;;;19.20;29.50;;;;;;5035970;28;20049;-66
2023/02/05 02:09:43;;;;;;;0.38;0.30;;;19.20;29.60;;;;;;5035619;28;20057;-65
2023/02/05 02:12:13;;;;;;;0.37;0.33;;;19.20;29.60;;;;;;5018717;28;20129;-66
2023/02/05 02:14:43;;;;;;;0.17;0.17;;;19.20;29.60;;;;;;5035844;28;20504;-66
2023/02/05 02:17:12;;;;;;;0.40;0.32;;;19.20;29.60;;;;;;5035753;28;20137;-66
2023/02/05 02:19:56;;;;;;;0.38;0.30;;;19.20;29.60;;;;;;5035788;28;20084;-66
2023/02/05 02:22:57;;;;;;;0.45;0.30;;;19.20;29.60;;;;;;5035609;28;20500;-66
2023/02/05 02:25:58;;;;;;;0.30;0.30;;;19.20;29.60;;;;;;5017693;28;20054;-66
2023/02/05 02:28:42;;;;;;;0.30;0.20;;;19.20;29.60;;;;;;5035639;28;20046;-66
2023/02/05 02:31:25;;;;;;;0.30;0.30;;;19.10;29.60;;;;;;5035314;28;20050;-66
2023/02/05 02:34:13;;;;;;;0.30;0.30;;;19.10;29.60;;;;;;5035369;28;20045;-66
2023/02/05 02:36:55;;;;;;;0.75;0.30;;;19.10;29.60;;;;;;5035383;28;20051;-66
2023/02/05 02:39:40;;;;;;;0.93;0.40;;;19.10;29.60;;;;;;5035282;28;20045;-66
2023/02/05 02:42:29;;;;;;;0.22;0.22;;;19.10;29.60;;;;;;5034784;28;20053;-66
2023/02/05 02:44:59;;;;;;;0.13;0.13;;;19.10;29.60;;;;;;5035036;28;20133;-65
2023/02/05 02:47:56;;;;;;;0.45;0.20;;;19.10;29.60;;;;;;5017630;28;20053;-66
2023/02/05 02:50:33;;;;;;;0.10;0.10;;;19.10;29.60;;;;;;5035397;28;20099;-66
2023/02/05 02:53:15;;;;;;;0.28;0.28;;;19.10;29.60;;;;;;5035069;28;20089;-65
2023/02/05 02:55:45;;;;;;;0.73;0.65;;;19.10;29.60;;;;;;5035295;28;20050;-66
2023/02/05 02:58:19;;;;;;;0.32;0.32;;;19.10;29.60;;;;;;5034962;28;20055;-66
2023/02/05 03:00:47;;;;;;;0.40;0.30;;;19.10;29.60;;;;;;5034614;28;20552;-66
2023/02/05 03:03:19;;;;;;;0.50;0.40;;;19.10;29.70;;;;;;5035176;28;20049;-66
2023/02/05 03:05:48;;;;;;;0.25;0.10;;;19.10;29.70;;;;;;5034793;28;20049;-66
2023/02/05 03:08:26;;;;;;;0.30;0.30;;;19.10;29.70;;;;;;5034913;28;20080;-66
2023/02/05 03:11:05;;;;;;;0.60;0.30;;;19.10;29.60;;;;;;5034659;28;20041;-66
2023/02/05 03:13:33;;;;;;;0.30;0.30;;;19.10;29.60;;;;;;5033577;28;20408;-66
2023/02/05 03:16:01;;;;;;;0.68;0.30;;;19.10;29.70;;;;;;5034499;28;20107;-66
2023/02/05 03:18:29;;;;;;;0.63;0.30;;;19.10;29.70;;;;;;5034396;28;20052;-66
2023/02/05 03:21:02;;;;;;;0.52;0.30;;;19.10;29.70;;;;;;5034218;28;20052;-65
2023/02/05 03:23:30;;;;;;;0.28;0.20;;;19.10;29.70;;;;;;5034510;28;20132;-66
2023/02/05 03:25:57;;;;;;;0.38;0.30;;;19.10;29.70;;;;;;5034157;28;20137;-66
2023/02/05 03:28:24;;;;;;;0.40;0.20;;;19.10;29.70;;;;;;5033946;28;20053;-66
2023/02/05 03:31:15;;;;;;;0.22;0.20;;;19.10;29.70;;;;;;5034272;28;20556;-66
2023/02/05 03:34:05;;;;;;;0.20;0.20;;;19.10;29.70;;;;;;5034049;28;20132;-66
2023/02/05 03:36:57;;;;;;;2.80;0.20;;;19.10;29.70;;;;;;5033948;28;20136;-66
2023/02/05 03:40:03;;;;;;;0.25;0.22;;;19.10;29.70;;;;;;5034146;28;20128;-66
2023/02/05 03:42:48;;;;;;;0.45;0.35;;;19.10;29.80;;;;;;5022397;28;20128;-66
2023/02/05 03:45:29;;;;;;;0.52;0.40;;;19.10;29.80;;;;;;5033822;28;20049;-66
2023/02/05 03:48:32;;;;;;;0.38;0.30;;;19.10;29.80;;;;;;5033949;28;20053;-66
2023/02/05 03:51:16;;;;;;;0.45;0.30;;;19.10;29.80;;;;;;5034278;28;20512;-66
2023/02/05 03:54:05;;;;;;;0.40;0.30;;;19.10;29.80;;;;;;5034166;28;20049;-66
2023/02/05 03:56:43;;;;;;;0.32;0.20;;;19.10;29.80;;;;;;5027705;28;20058;-66
2023/02/05 03:59:12;;;;;;;0.20;0.20;;;19.10;29.80;;;;;;5013379;28;20050;-66
2023/02/05 04:01:40;;;;;;;0.60;0.43;;;19.10;29.80;;;;;;5012977;28;20053;-66
2023/02/05 04:04:07;;;;;;;0.30;0.10;;;19.10;29.80;;;;;;5012822;28;20050;-66
2023/02/05 04:06:34;;;;;;;0.10;0.10;;;19.10;29.80;;;;;;5012950;28;20057;-66
2023/02/05 04:09:01;;;;;;;0.35;0.35;;;19.00;29.80;;;;;;5014422;28;20445;-66
2023/02/05 04:11:28;;;;;;;0.55;0.30;;;19.00;29.80;;;;;;5014138;28;20138;-66
2023/02/05 04:13:56;;;;;;;0.60;0.32;;;19.00;29.80;;;;;;5014074;28;20053;-66
2023/02/05 04:16:23;;;;;;;0.47;0.30;;;19.00;29.80;;;;;;5013848;28;20045;-66
2023/02/05 04:18:50;;;;;;;0.20;0.20;;;19.00;29.80;;;;;;5013654;28;20209;-66
2023/02/05 04:21:17;;;;;;;0.20;0.20;;;19.00;29.80;;;;;;5013709;28;20068;-67
2023/02/05 04:23:44;;;;;;;0.28;0.13;;;19.00;29.80;;;;;;5013457;28;20478;-66
2023/02/05 04:26:11;;;;;;;0.20;0.20;;;19.00;29.80;;;;;;4996276;28;20078;-66
2023/02/05 04:28:38;;;;;;;0.30;0.22;;;19.00;29.80;;;;;;5013540;28;20056;-66
2023/02/05 04:31:07;;;;;;;0.50;0.30;;;19.00;29.80;;;;;;5013405;28;20042;-66
2023/02/05 04:33:34;;;;;;;0.10;0.10;;;19.00;29.80;;;;;;5013418;28;20089;-66
2023/02/05 04:36:01;;;;;;;0.30;0.30;;;19.00;29.80;;;;;;5013648;28;20133;-66
2023/02/05 04:38:28;;;;;;;0.20;0.20;;;19.00;29.80;;;;;;5013206;28;20490;-66
2023/02/05 04:40:56;;;;;;;0.57;0.10;;;19.00;29.80;;;;;;5013356;28;20052;-66
2023/02/05 04:43:23;;;;;;;0.45;0.25;;;19.00;29.80;;;;;;5013623;28;20137;-66
2023/02/05 04:45:50;;;;;;;0.50;0.35;;;19.10;29.90;;;;;;5013261;28;20096;-66
2023/02/05 04:48:20;;;;;;;0.60;0.22;;;19.00;29.90;;;;;;5013202;28;20054;-66
2023/02/05 04:50:47;;;;;;;0.40;0.30;;;19.00;29.80;;;;;;5013595;28;20306;-66
2023/02/05 04:53:14;;;;;;;0.63;0.40;;;19.00;29.80;;;;;;5013087;28;20144;-66
2023/02/05 04:55:41;;;;;;;0.70;0.20;;;19.00;29.90;;;;;;5013084;28;20393;-66
2023/02/05 04:58:08;;;;;;;0.28;0.28;;;19.00;29.90;;;;;;5013166;28;20046;-66
2023/02/05 05:00:35;;;;;;;0.38;0.25;;;19.00;29.90;;;;;;5012985;28;20077;-66
2023/02/05 05:03:02;;;;;;;0.30;0.30;;;19.00;29.80;;;;;;5013266;28;20132;-66
2023/02/05 05:05:30;;;;;;;0.32;0.13;;;19.00;29.90;;;;;;5013216;28;20050;-66
2023/02/05 05:07:58;;;;;;;0.30;0.30;;;19.00;29.90;;;;;;5012889;28;20556;-66
2023/02/05 05:10:26;;;;;;;0.20;0.20;;;19.00;29.90;;;;;;5013045;28;20073;-66
2023/02/05 05:12:53;;;;;;;0.28;0.28;;;19.00;29.90;;;;;;5012662;28;20060;-66
2023/02/05 05:15:20;;;;;;;0.30;0.20;;;19.00;29.90;;;;;;5013000;28;20049;-66
2023/02/05 05:17:47;;;;;;;0.65;0.20;;;19.00;29.90;;;;;;5012882;28;20409;-66
2023/02/05 05:20:14;;;;;;;0.55;0.30;;;19.00;29.90;;;;;;5012985;28;20500;-66
2023/02/05 05:22:41;;;;;;;0.68;0.30;;;19.00;29.90;;;;;;5012791;28;20045;-66
2023/02/05 05:25:08;;;;;;;1.48;0.55;;;19.00;29.90;;;;;;5012972;28;20041;-66
2023/02/05 05:27:35;;;;;;;0.20;0.20;;;19.00;29.90;;;;;;5012918;28;20141;-66
2023/02/05 05:30:03;;;;;;;0.20;0.20;;;19.00;29.90;;;;;;5012420;28;20046;-65
2023/02/05 05:32:30;;;;;;;0.77;0.20;;;19.00;29.90;;;;;;5012838;28;20046;-66
2023/02/05 05:34:57;;;;;;;0.45;0.30;;;19.00;29.90;;;;;;5012797;28;20057;-66
2023/02/05 05:37:24;;;;;;;1.00;0.22;;;19.00;29.90;;;;;;5016802;28;20391;-66
2023/02/05 05:45:25;;;;;;;0.70;0.38;;;18.90;29.40;;;;;;5016083;28;20050;-65
2023/02/05 05:47:52;;;;;;;0.50;0.50;;;18.90;29.40;;;;;;5016490;28;20060;-65
2023/02/05 05:50:19;;;;;;;0.88;0.50;;;18.90;29.50;;;;;;5016408;28;20046;-65
2023/02/05 05:52:46;;;;;;;0.80;0.55;;;18.80;29.40;;;;;;5016451;28;20085;-66
2023/02/05 05:55:14;;;;;;;0.50;0.32;;;18.80;29.90;;;;;;5016614;28;20045;-65
2023/02/05 05:57:41;;;;;;;0.70;0.30;;;18.80;29.40;;;;;;5016320;28;20046;-65
2023/02/05 06:00:09;;;;;;;0.65;0.40;;;18.80;29.50;;;;;;5016112;28;20314;-65
2023/02/05 06:02:40;;;;;;;0.43;0.43;;;18.80;29.50;;;;;;5016086;28;20407;-66
2023/02/05 06:05:07;;;;;;;0.35;0.35;;;18.80;29.50;;;;;;5016189;28;20050;-66
2023/02/05 06:07:34;;;;;;;0.85;0.40;;;18.90;29.50;;;;;;5016064;28;20049;-66
2023/02/05 06:10:01;;;;;;;0.50;0.50;;;18.90;29.50;;;;;;5016326;28;20129;-66
2023/02/05 06:12:29;;;;;;;0.43;0.40;;;18.90;29.50;;;;;;5016567;28;20077;-65
2023/02/05 06:14:56;;;;;;;0.50;0.30;;;18.90;29.50;;;;;;5016111;28;20071;-65
2023/02/05 06:17:23;;;;;;;0.50;0.35;;;18.90;29.50;;;;;;5016129;28;20062;-65
2023/02/05 06:19:50;;;;;;;1.50;0.40;;;18.90;29.40;;;;;;5015580;28;20054;-66
2023/02/05 06:22:17;;;;;;;0.40;0.40;;;19.00;29.40;;;;;;5015737;28;20386;-66
2023/02/05 06:24:44;;;;;;;0.88;0.52;;;19.00;29.40;;;;;;5015999;28;20124;-66
2023/02/05 06:27:11;;;;;;;1.65;0.40;;;19.00;29.40;;;;;;5015951;28;20073;-66
2023/02/05 06:29:38;;;;;;;0.82;0.47;;;19.00;29.30;;;;;;5015661;28;20050;-66
2023/02/05 06:32:05;;;;;;;0.55;0.40;;;19.10;29.30;;;;;;5015636;28;20084;-65
2023/02/05 06:34:33;;;;;;;0.20;0.20;;;19.10;29.30;;;;;;5015325;28;20053;-65
2023/02/05 06:37:00;;;;;;;0.52;0.40;;;19.10;29.20;;;;;;5015932;28;20046;-65
2023/02/05 06:39:27;;;;;;;0.98;0.60;;;19.20;29.20;;;;;;5015744;28;20087;-66
2023/02/05 06:41:54;;;;;;;0.73;0.30;;;19.20;29.20;;;;;;5015649;28;20045;-66
2023/02/05 06:44:23;;;;;;;0.95;0.60;;;19.20;29.60;;;;;;5015222;28;20561;-66
2023/02/05 06:46:50;;;;;;;0.73;0.40;;;19.20;29.10;;;;;;5015512;28;20179;-66
2023/02/05 06:49:17;;;;;;;0.77;0.68;;;19.30;29.10;;;;;;5015293;28;20058;-66
2023/02/05 06:51:44;;;;;;;0.63;0.32;;;19.30;29.00;;;;;;5014867;28;20512;-66
2023/02/05 06:54:11;;;;;;;0.93;0.40;;;19.30;29.00;;;;;;5013294;28;20049;-66
2023/02/05 06:56:38;;;;;;;0.75;0.52;;;19.40;29.00;;;;;;5015137;28;20050;-65
2023/02/05 06:59:05;;;;;;;0.90;0.57;;;19.40;29.00;;;;;;5013820;28;20048;-66
2023/02/05 07:01:32;;;;;;;0.82;0.50;;;19.40;28.90;;;;;;5014840;28;20046;-66
2023/02/05 07:04:00;;;;;;;0.55;0.30;;;19.40;28.90;;;;;;5014118;28;20111;-66
2023/02/05 07:06:27;;;;;;;0.52;0.52;;;19.40;29.20;;;;;;5014374;28;20057;-66
2023/02/05 07:08:55;;;;;;;0.65;0.60;;;19.50;28.80;;;;;;5014210;28;20516;-66
2023/02/05 07:11:22;;;;;;;0.90;0.60;;;19.50;28.80;;;;;;5014301;28;20128;-66
2023/02/05 07:13:49;;;;;;;1.02;0.55;;;19.50;28.80;;;;;;5017052;28;20460;-65
2023/02/05 07:16:17;;;;;;;0.60;0.60;;;19.60;28.80;;;;;;5033228;28;20041;-66
2023/02/05 07:18:44;;;;;;;1.15;0.60;;;19.60;28.70;;;;;;5033859;28;20133;-66
2023/02/05 07:21:14;;;;;;;1.10;0.80;;;19.60;28.70;;;;;;5033526;28;20046;-66
2023/02/05 07:23:42;;;;;;;0.60;0.60;;;19.60;28.70;;;;;;5015578;28;20080;-66
2023/02/05 07:26:15;;;;;;;2.35;0.93;;;19.70;28.70;;;;;;5034160;28;20049;-66
2023/02/05 07:28:43;;;;;;;0.70;0.57;;;19.70;28.60;;;;;;5032995;28;20050;-65
2023/02/05 07:31:17;;;;;;;1.23;0.57;;;19.70;28.60;;;;;;5034019;28;20052;-66
2023/02/05 07:33:46;;;;;;;1.05;1.05;;;19.80;28.50;;;;;;5031867;28;20053;-65
2023/02/05 07:36:15;;;;;;;1.02;0.75;;;19.80;28.50;;;;;;5033698;28;20589;-66
2023/02/05 07:38:44;;;;;;;1.13;0.60;;;19.90;28.50;;;;;;5034356;28;20045;-66
2023/02/05 07:41:13;;;;;;;1.75;0.98;;;19.90;28.40;;;;;;5033719;28;20053;-66
2023/02/05 07:43:41;;;;;;;0.57;0.57;;;19.90;28.40;;;;;;5034190;28;20095;-66
2023/02/05 07:46:11;;;;;;;1.55;1.00;;;19.90;28.30;;;;;;5034123;28;20136;-66
2023/02/05 07:48:38;;;;;;;0.98;0.80;;;20.00;28.30;;;;;;5016150;28;20045;-66
2023/02/05 07:51:06;;;;;;;0.90;0.70;;;20.00;28.20;;;;;;5034192;28;20052;-66
2023/02/05 07:53:33;;;;;;;0.80;0.80;;;20.00;28.20;;;;;;5034202;28;20444;-65
2023/02/05 07:56:03;;;;;;;1.55;0.88;;;20.00;28.20;;;;;;5033606;28;20041;-66
2023/02/05 07:58:30;;;;;;;1.42;0.70;;;20.00;28.20;;;;;;5015709;28;20053;-66
2023/02/05 08:01:02;;;;;;;1.15;0.98;;;20.10;28.20;;;;;;5034077;28;20379;-66
2023/02/05 08:03:30;;;;;;;1.25;0.70;;;20.10;28.10;;;;;;5016269;28;20053;-66
2023/02/05 08:05:57;;;;;;;1.05;0.70;;;20.10;28.10;;;;;;5033713;28;20160;-66
2023/02/05 08:08:24;;;;;;;1.58;0.98;;;20.20;28.10;;;;;;5033542;28;20056;-65
2023/02/05 08:11:02;;;;;;;0.80;0.80;;;20.20;28.10;;;;;;5033532;28;20041;-65
2023/02/05 08:13:29;;;;;;;1.23;1.00;;;20.20;28.10;;;;;;5034022;28;20060;-66
2023/02/05 08:15:57;;;;;;;1.02;0.90;;;20.20;28.10;;;;;;5033294;28;20401;-66
2023/02/05 08:18:24;;;;;;;2.10;1.00;;;20.20;28.10;;;;;;5033422;28;20049;-66
2023/02/05 08:20:52;;;;;;;2.35;1.20;;;20.20;28.00;;;;;;5033678;28;20400;-66
2023/02/05 08:23:20;;;;;;;1.30;0.95;;;20.30;28.00;;;;;;5033483;28;20140;-66
2023/02/05 08:25:47;;;;;;;0.73;0.73;;;20.30;28.00;;;;;;5033464;28;20073;-66
2023/02/05 08:28:14;;;;;;;2.63;1.02;;;20.30;28.00;;;;;;5033523;28;20404;-65
2023/02/05 08:30:41;;;;;;;1.55;1.13;;;20.40;28.00;;;;;;5033091;28;20080;-66
2023/02/05 08:33:09;;;;;;;2.03;0.88;;;20.40;28.00;;;;;;5033131;28;20077;-66
2023/02/05 08:35:36;;;;;;;2.28;1.10;;;20.40;28.00;;;;;;5033022;28;20055;-66
2023/02/05 08:38:03;;;;;;;1.52;1.20;;;20.50;28.00;;;;;;5033051;28;20045;-65
2023/02/05 08:40:30;;;;;;;1.40;1.02;;;20.50;27.90;;;;;;5015473;28;20052;-66
2023/02/05 08:42:59;;;;;;;2.60;1.15;;;20.50;27.90;;;;;;5033416;28;20464;-66
2023/02/05 08:45:26;;;;;;;1.13;0.80;;;20.60;27.90;;;;;;5032872;28;20049;-66
2023/02/05 08:47:54;;;;;;;1.42;1.20;;;20.60;27.80;;;;;;5032520;28;20045;-66
2023/02/05 08:50:21;;;;;;;2.17;0.95;;;20.60;27.80;;;;;;5032950;28;20088;-65
2023/02/05 08:52:48;;;;;;;3.20;1.00;;;20.70;28.10;;;;;;5032924;28;20382;-65
2023/02/05 08:55:19;;;;;;;1.88;1.13;;;20.70;27.70;;;;;;5033064;28;20408;-66
2023/02/05 08:57:46;;;;;;;0.90;0.90;;;20.80;27.70;;;;;;5033225;28;20496;-66
2023/02/05 09:00:14;;;;;;;0.82;0.63;;;20.80;27.60;;;;;;5032450;28;20061;-66
2023/02/05 09:02:42;;;;;;;0.80;0.80;;;20.90;27.60;;;;;;5032819;28;20045;-65
2023/02/05 09:05:09;;;;;;;1.77;1.00;;;20.90;27.50;;;;;;5032794;28;20045;-66
2023/02/05 09:07:38;;;;;;;0.90;0.80;;;21.00;27.60;;;;;;5032690;28;20088;-66
2023/02/05 09:10:10;;;;;;;1.50;0.90;;;21.00;27.50;;;;;;5033391;28;20057;-66
2023/02/05 09:12:38;;;;;;;2.30;1.23;;;21.00;27.40;;;;;;5037450;28;20069;-66
2023/02/05 09:15:06;;;;;;;0.70;0.70;;;21.10;27.40;;;;;;5037256;28;20049;-67
2023/02/05 09:17:33;;;;;;;1.30;0.90;;;21.10;27.40;;;;;;5036727;28;20045;-66
2023/02/05 09:20:00;;;;;;;0.82;0.73;;;21.10;27.30;;;;;;5036222;28;20140;-66
2023/02/05 09:22:28;;;;;;;6.72;0.80;;;21.20;27.30;;;;;;5018266;28;20073;-66
2023/02/05 09:24:55;;;;;;;1.33;0.82;;;21.20;27.30;;;;;;5036350;28;20057;-66
2023/02/05 09:27:22;;;;;;;2.42;1.05;;;21.20;27.20;;;;;;5036841;28;20057;-66
2023/02/05 09:29:49;;;;;;;0.90;0.90;;;21.20;27.10;;;;;;5036181;28;20136;-66
2023/02/05 09:32:16;;;;;;;3.28;1.10;;;21.20;27.10;;;;;;5036520;28;20060;-66
2023/02/05 09:34:43;;;;;;;1.15;0.68;;;21.30;27.10;;;;;;5036795;28;20060;-65
2023/02/05 09:37:10;;;;;;;1.42;0.85;;;21.30;27.10;;;;;;5036318;28;20064;-66
2023/02/05 09:39:39;;;;;;;1.65;0.68;;;21.30;27.10;;;;;;5036805;28;20405;-65
2023/02/05 09:42:34;;;;;;;1.20;0.90;;;21.30;27.00;;;;;;5036036;28;20042;-65
2023/02/05 09:45:22;;;;;;;0.80;0.80;;;21.30;27.00;;;;;;5036053;28;20050;-66
2023/02/05 09:48:03;;;;;;;0.98;0.90;;;21.30;27.00;;;;;;5036715;28;20045;-66
2023/02/05 09:50:32;;;;;;;1.38;0.88;;;21.40;26.90;;;;;;5036200;28;20049;-66
2023/02/05 09:53:04;;;;;;;1.10;0.80;;;21.40;26.90;;;;;;5036410;28;20042;-66
2023/02/05 09:55:38;;;;;;;0.75;0.70;;;21.40;26.90;;;;;;5036033;28;20404;-66
2023/02/05 09:58:20;;;;;;;1.67;0.80;;;21.50;26.90;;;;;;5036086;28;20128;-66
2023/02/05 10:01:01;;;;;;;1.05;1.00;;;21.50;26.90;;;;;;5036221;28;20050;-66
2023/02/05 10:03:48;;;;;;;0.82;0.55;;;21.60;26.80;;;;;;5018408;28;20132;-66
2023/02/05 10:06:40;;;;;;;0.85;0.77;;;21.60;26.80;;;;;;5035784;28;20136;-66
2023/02/05 10:09:47;;;;;;;0.70;0.68;;;21.60;26.70;;;;;;5035856;28;20132;-66
2023/02/05 10:12:36;;;;;;;0.77;0.70;;;21.60;26.70;;;;;;5035464;28;20056;-67
2023/02/05 10:15:35;;;;;;;1.48;0.95;;;21.60;26.70;;;;;;5019321;28;20089;-66
2023/02/05 10:18:20;;;;;;;1.15;0.85;;;21.60;26.70;;;;;;5016281;28;20129;-66
2023/02/05 10:21:06;;;;;;;1.10;1.00;;;21.70;26.70;;;;;;5015833;28;20129;-66
2023/02/05 10:24:13;;;;;;;0.68;0.68;;;21.70;26.70;;;;;;5015646;28;20555;-66
2023/02/05 10:26:50;;;;;;;1.13;0.80;;;21.70;26.60;;;;;;5015355;28;20056;-66
2023/02/05 10:29:41;;;;;;;0.57;0.50;;;21.70;26.60;;;;;;5016119;28;20057;-67
2023/02/05 10:32:21;;;;;;;;;;;21.70;26.60;;;;;;5015814;28;20049;-66
2023/02/05 10:34:55;;;;;;;;;;;21.80;27.00;;;;;;5016171;28;19988;-66
2023/02/05 10:37:40;;;;;;;0.93;0.77;;;21.80;26.50;;;;;;5016130;28;19921;-66
2023/02/05 10:40:17;;;;;;;0.98;0.73;;;21.80;26.50;;;;;;5015447;28;20056;-66
2023/02/05 10:42:51;;;;;;;1.98;1.10;;;21.80;26.50;;;;;;5015701;28;20125;-66
2023/02/05 10:45:25;;;;;;;0.77;0.77;;;21.80;26.50;;;;;;5015424;28;20072;-68
2023/02/05 10:48:32;;;;;;;1.17;0.80;;;21.90;26.40;;;;;;5015649;28;20050;-66
2023/02/05 10:51:12;;;;;;;1.00;0.82;;;21.90;26.40;;;;;;5000900;28;20046;-66
2023/02/05 10:53:40;;;;;;;0.73;0.73;;;21.90;26.40;;;;;;5015331;28;20100;-66
2023/02/05 10:56:13;;;;;;;0.93;0.65;;;21.90;26.40;;;;;;5014953;28;20060;-66
2023/02/05 10:58:47;;;;;;;0.60;0.60;;;21.90;26.30;;;;;;5015284;28;20064;-66
2023/02/05 11:01:24;;;;;;;1.45;0.80;;;21.90;26.30;;;;;;5014819;28;20045;-66
2023/02/05 11:03:57;;;;;;;0.93;0.73;;;21.90;26.30;;;;;;5014934;28;20060;-66
2023/02/05 11:06:26;;;;;;;0.80;0.60;;;21.90;26.30;;;;;;5015039;28;20056;-67
2023/02/05 11:08:53;;;;;;;1.08;0.98;;;21.90;26.30;;;;;;5015295;28;20071;-66
2023/02/05 11:11:27;;;;;;;1.20;1.10;;;21.90;26.70;;;;;;5014451;28;20049;-66
2023/02/05 11:14:01;;;;;;;1.35;1.10;;;21.90;26.30;;;;;;5015265;28;20125;-66
2023/02/05 11:16:43;;;;;;;1.05;0.82;;;21.90;26.30;;;;;;5014567;28;20220;-66
2023/02/05 11:19:27;;;;;;;0.75;0.60;;;22.00;26.30;;;;;;5015272;28;20100;-66
2023/02/05 11:21:57;;;;;;;1.35;0.80;;;22.00;26.20;;;;;;5014606;28;20056;-66
2023/02/05 11:24:41;;;;;;;1.15;0.80;;;22.00;26.20;;;;;;5014745;28;20050;-68
2023/02/05 11:27:32;;;;;;;1.77;1.02;;;22.00;26.10;;;;;;4984156;28;20137;-66
2023/02/05 11:30:29;;;;;;;2.58;0.98;;;22.00;26.10;;;;;;5000536;28;20046;-66
2023/02/05 11:33:28;;;;;;;0.65;0.65;;;22.00;26.00;;;;;;5013745;28;20050;-66
2023/02/05 11:36:03;;;;;;;1.45;0.60;;;22.00;26.10;;;;;;5014623;28;20398;-66
2023/02/05 11:38:47;;;;;;;0.95;0.85;;;22.00;26.10;;;;;;5014857;28;20458;-66
2023/02/05 11:41:27;;;;;;;0.85;0.65;;;22.00;26.10;;;;;;5014415;28;20056;-66
2023/02/05 11:43:56;;;;;;;1.10;0.60;;;22.00;26.10;;;;;;5013962;28;20042;-66
2023/02/05 11:46:25;;;;;;;0.93;0.88;;;22.00;26.00;;;;;;5014542;28;20391;-66
2023/02/05 11:49:03;;;;;;;0.80;0.80;;;22.00;26.00;;;;;;5013924;28;20148;-66
2023/02/05 11:51:43;;;;;;;1.55;1.10;;;22.00;26.00;;;;;;5014257;28;20137;-67
2023/02/05 11:54:25;;;;;;;1.15;0.70;;;22.00;25.90;;;;;;5014553;28;20054;-66
2023/02/05 11:57:04;;;;;;;1.15;0.73;;;22.00;25.90;;;;;;5014204;28;20071;-66
2023/02/05 11:59:32;;;;;;;2.58;0.73;;;22.00;25.90;;;;;;5014286;28;20476;-66
2023/02/05 12:02:27;;;;;;;0.73;0.73;;;22.00;25.90;;;;;;5013786;28;20394;-66
2023/02/05 12:05:02;;;;;;;0.85;0.80;;;22.00;25.90;;;;;;5013845;28;20501;-65
2023/02/05 12:07:37;;;;;;;0.60;0.60;;;22.00;25.90;;;;;;5014547;28;20473;-65
2023/02/05 12:10:14;;;;;;;1.33;0.93;;;22.00;25.90;;;;;;5030452;28;20050;-66
2023/02/05 12:12:56;;;;;;;1.08;0.68;;;22.00;25.90;;;;;;5031538;28;20087;-66
2023/02/05 12:15:27;;;;;;;0.75;0.75;;;22.00;25.90;;;;;;5033452;28;20053;-66
2023/02/05 12:18:34;;;;;;;0.65;0.65;;;22.00;25.90;;;;;;5030766;28;20044;-66
2023/02/05 12:21:32;;;;;;;0.80;0.80;;;22.00;25.90;;;;;;5032891;28;20081;-66
2023/02/05 12:24:21;;;;;;;1.23;0.80;;;22.00;25.90;;;;;;5003634;28;20046;-66
2023/02/05 12:26:55;;;;;;;1.20;1.02;;;22.00;25.80;;;;;;5018174;28;20051;-66
2023/02/05 12:30:02;;;;;;;1.75;1.05;;;22.00;25.80;;;;;;5032485;28;20060;-66
2023/02/05 12:32:47;;;;;;;0.93;0.80;;;22.00;25.80;;;;;;5020914;28;20072;-66
2023/02/05 12:35:49;;;;;;;1.83;0.90;;;22.00;25.80;;;;;;5032922;28;20059;-66
2023/02/05 12:38:39;;;;;;;1.20;0.75;;;22.10;25.80;;;;;;5033390;28;20045;-65
2023/02/05 12:41:29;;;;;;;1.13;0.73;;;22.10;25.80;;;;;;5033214;28;20075;-66
2023/02/05 12:44:25;;;;;;;1.00;0.90;;;22.00;25.70;;;;;;5032698;28;20056;-66
2023/02/05 12:47:18;;;;;;;0.60;0.60;;;22.10;25.80;;;;;;5018222;28;20049;-66
2023/02/05 12:50:00;;;;;;;1.10;1.00;;;22.10;25.70;;;;;;5025113;28;20056;-66
2023/02/05 12:52:48;;;;;;;1.02;0.90;;;22.10;25.70;;;;;;5013496;28;20077;-65
2023/02/05 12:55:46;;;;;;;1.35;0.90;;;22.00;25.70;;;;;;5013136;28;20049;-65
2023/02/05 12:58:16;;;;;;;1.00;0.90;;;22.00;25.70;;;;;;5013244;28;20399;-66
2023/02/05 13:00:52;;;;;;;0.63;0.63;;;22.00;25.70;;;;;;5012968;28;20049;-66
2023/02/05 13:03:37;;;;;;;1.00;0.90;;;22.00;25.80;;;;;;5013008;28;20053;-66
2023/02/05 13:06:28;;;;;;;1.42;0.82;;;22.00;25.80;;;;;;5012858;28;20042;-66
2023/02/05 13:09:02;;;;;;;1.60;1.50;;;22.00;25.80;;;;;;5013336;28;20045;-66
2023/02/05 13:11:50;;;;;;;1.95;1.30;;;22.00;25.70;;;;;;5015467;28;20046;-66
2023/02/05 13:14:21;;;;;;;0.70;0.70;;;22.00;25.70;;;;;;5032354;28;20060;-66
2023/02/05 13:17:12;;;;;;;2.53;1.13;;;22.00;25.70;;;;;;5032939;28;20050;-66
2023/02/05 13:19:45;;;;;;;0.80;0.80;;;22.00;25.70;;;;;;5032425;28;20387;-66
2023/02/05 13:28:39;;;;;;;1.38;0.80;;;21.90;25.60;;;;;;5020984;28;20132;-66
2023/02/05 13:31:36;;;;;;;3.33;1.30;;;22.00;25.70;;;;;;5031821;28;20540;-66